sensor_id;sensor_type;location;lat;lon;timestamp;pressure;altitude;pressure_sealevel;temperature;humidity
5062;BME280;2351;50.812;12.872;2022-10-30T00:00:18;98318.91;;;12.31;81.87
5062;BME280;2351;50.812;12.872;2022-10-30T00:02:50;98325.72;;;12.24;81.94
5062;BME280;2351;50.812;12.872;2022-10-30T00:05:22;98323.59;;;12.18;81.96
5062;BME280;2351;50.812;12.872;2022-10-30T00:07:54;98322.03;;;12.15;82.06
5062;BME280;2351;50.812;12.872;2022-10-30T00:10:26;98318.81;;;12.12;82.07
5062;BME280;2351;50.812;12.872;2022-10-30T00:12:58;98320.06;;;12.08;82.33
5062;BME280;2351;50.812;12.872;2022-10-30T00:15:32;98313.63;;;12.00;82.12
5062;BME280;2351;50.812;12.872;2022-10-30T00:18:04;98316.88;;;11.93;82.41
5062;BME280;2351;50.812;12.872;2022-10-30T00:20:35;98312.22;;;11.85;82.63
5062;BME280;2351;50.812;12.872;2022-10-30T00:23:07;98304.53;;;11.82;82.68
5062;BME280;2351;50.812;12.872;2022-10-30T00:25:38;98301.19;;;11.80;82.71
5062;BME280;2351;50.812;12.872;2022-10-30T00:28:11;98301.47;;;11.77;82.84
5062;BME280;2351;50.812;12.872;2022-10-30T00:30:43;98298.81;;;11.77;82.75
5062;BME280;2351;50.812;12.872;2022-10-30T00:33:14;98305.19;;;11.74;82.94
5062;BME280;2351;50.812;12.872;2022-10-30T00:35:47;98307.28;;;11.70;83.16
5062;BME280;2351;50.812;12.872;2022-10-30T00:38:19;98308.50;;;11.66;83.09
5062;BME280;2351;50.812;12.872;2022-10-30T00:40:51;98307.94;;;11.63;83.15
5062;BME280;2351;50.812;12.872;2022-10-30T00:43:32;98301.19;;;11.58;83.31
5062;BME280;2351;50.812;12.872;2022-10-30T00:46:07;98293.03;;;11.50;83.10
5062;BME280;2351;50.812;12.872;2022-10-30T00:48:48;98295.28;;;11.45;83.43
5062;BME280;2351;50.812;12.872;2022-10-30T00:51:23;98298.53;;;11.37;83.24
5062;BME280;2351;50.812;12.872;2022-10-30T00:53:57;98288.47;;;11.31;83.22
5062;BME280;2351;50.812;12.872;2022-10-30T00:56:29;98294.13;;;11.26;83.65
5062;BME280;2351;50.812;12.872;2022-10-30T00:59:06;98288.25;;;11.23;83.84
5062;BME280;2351;50.812;12.872;2022-10-30T01:01:42;98281.69;;;11.17;83.67
5062;BME280;2351;50.812;12.872;2022-10-30T01:04:15;98277.75;;;11.11;83.88
5062;BME280;2351;50.812;12.872;2022-10-30T01:06:49;98284.25;;;11.07;84.22
5062;BME280;2351;50.812;12.872;2022-10-30T01:09:22;98284.88;;;10.99;84.00
5062;BME280;2351;50.812;12.872;2022-10-30T01:11:53;98288.84;;;10.94;84.08
5062;BME280;2351;50.812;12.872;2022-10-30T01:14:28;98291.78;;;10.91;84.18
5062;BME280;2351;50.812;12.872;2022-10-30T01:17:13;98283.13;;;10.89;84.43
5062;BME280;2351;50.812;12.872;2022-10-30T01:19:54;98283.22;;;10.87;84.52
5062;BME280;2351;50.812;12.872;2022-10-30T01:22:38;98278.06;;;10.85;84.82
5062;BME280;2351;50.812;12.872;2022-10-30T01:25:26;98273.50;;;10.88;84.68
5062;BME280;2351;50.812;12.872;2022-10-30T01:28:09;98272.53;;;10.89;85.00
5062;BME280;2351;50.812;12.872;2022-10-30T01:31:05;98268.31;;;10.86;84.84
5062;BME280;2351;50.812;12.872;2022-10-30T01:33:54;98268.56;;;10.83;85.18
5062;BME280;2351;50.812;12.872;2022-10-30T01:36:32;98257.63;;;10.76;85.09
5062;BME280;2351;50.812;12.872;2022-10-30T01:39:12;98276.41;;;10.73;85.25
5062;BME280;2351;50.812;12.872;2022-10-30T01:41:44;98264.28;;;10.70;85.54
5062;BME280;2351;50.812;12.872;2022-10-30T01:44:17;98273.19;;;10.69;85.49
5062;BME280;2351;50.812;12.872;2022-10-30T01:47:02;98275.13;;;10.67;85.60
5062;BME280;2351;50.812;12.872;2022-10-30T01:50:01;98272.22;;;10.70;86.01
5062;BME280;2351;50.812;12.872;2022-10-30T01:52:41;98268.47;;;10.73;86.22
5062;BME280;2351;50.812;12.872;2022-10-30T01:55:24;98254.28;;;10.74;86.29
5062;BME280;2351;50.812;12.872;2022-10-30T01:58:05;98261.13;;;10.77;86.29
5062;BME280;2351;50.812;12.872;2022-10-30T02:00:39;98261.97;;;10.77;86.50
5062;BME280;2351;50.812;12.872;2022-10-30T02:03:13;98252.94;;;10.80;86.81
5062;BME280;2351;50.812;12.872;2022-10-30T02:05:47;98245.59;;;10.83;86.91
5062;BME280;2351;50.812;12.872;2022-10-30T02:08:20;98236.78;;;10.83;87.12
5062;BME280;2351;50.812;12.872;2022-10-30T02:10:52;98230.81;;;10.81;87.17
5062;BME280;2351;50.812;12.872;2022-10-30T02:13:24;98233.31;;;10.82;87.40
5062;BME280;2351;50.812;12.872;2022-10-30T02:15:57;98217.44;;;10.82;87.72
5062;BME280;2351;50.812;12.872;2022-10-30T02:18:30;98195.38;;;10.82;87.50
5062;BME280;2351;50.812;12.872;2022-10-30T02:21:03;98230.66;;;10.82;88.18
5062;BME280;2351;50.812;12.872;2022-10-30T02:23:35;98273.94;;;10.93;89.92
5062;BME280;2351;50.812;12.872;2022-10-30T02:26:07;98235.53;;;10.98;89.18
5062;BME280;2351;50.812;12.872;2022-10-30T02:28:38;98236.09;;;11.02;88.88
5062;BME280;2351;50.812;12.872;2022-10-30T02:31:10;98230.81;;;11.02;89.15
5062;BME280;2351;50.812;12.872;2022-10-30T02:33:43;98243.56;;;11.08;89.36
5062;BME280;2351;50.812;12.872;2022-10-30T02:36:16;98239.22;;;11.07;89.80
5062;BME280;2351;50.812;12.872;2022-10-30T02:38:48;98237.53;;;11.06;89.41
5062;BME280;2351;50.812;12.872;2022-10-30T02:41:20;98244.78;;;11.04;89.30
5062;BME280;2351;50.812;12.872;2022-10-30T02:43:51;98223.72;;;11.03;89.68
5062;BME280;2351;50.812;12.872;2022-10-30T02:46:23;98213.00;;;11.04;89.72
5062;BME280;2351;50.812;12.872;2022-10-30T02:48:55;98209.84;;;11.10;90.04
5062;BME280;2351;50.812;12.872;2022-10-30T02:51:29;98211.94;;;11.17;89.91
5062;BME280;2351;50.812;12.872;2022-10-30T02:54:01;98207.25;;;11.20;90.06
5062;BME280;2351;50.812;12.872;2022-10-30T02:56:33;98212.72;;;11.28;90.26
5062;BME280;2351;50.812;12.872;2022-10-30T02:59:04;98217.66;;;11.33;90.25
5062;BME280;2351;50.812;12.872;2022-10-30T03:01:36;98216.06;;;11.30;89.93
5062;BME280;2351;50.812;12.872;2022-10-30T03:04:07;98207.97;;;11.22;89.75
5062;BME280;2351;50.812;12.872;2022-10-30T03:06:40;98210.97;;;11.18;89.87
5062;BME280;2351;50.812;12.872;2022-10-30T03:09:11;98208.72;;;11.13;89.73
5062;BME280;2351;50.812;12.872;2022-10-30T03:11:43;98207.19;;;11.10;89.66
5062;BME280;2351;50.812;12.872;2022-10-30T03:14:15;98212.72;;;11.07;89.51
5062;BME280;2351;50.812;12.872;2022-10-30T03:16:46;98207.69;;;11.04;89.33
5062;BME280;2351;50.812;12.872;2022-10-30T03:19:19;98209.13;;;11.08;89.45
5062;BME280;2351;50.812;12.872;2022-10-30T03:21:53;98206.59;;;11.07;89.44
5062;BME280;2351;50.812;12.872;2022-10-30T03:24:24;98197.91;;;11.05;89.65
5062;BME280;2351;50.812;12.872;2022-10-30T03:26:56;98204.06;;;11.05;89.84
5062;BME280;2351;50.812;12.872;2022-10-30T03:29:27;98206.59;;;11.07;89.72
5062;BME280;2351;50.812;12.872;2022-10-30T03:31:59;98207.44;;;11.07;89.79
5062;BME280;2351;50.812;12.872;2022-10-30T03:34:30;98207.69;;;11.04;89.77
5062;BME280;2351;50.812;12.872;2022-10-30T03:37:04;98206.84;;;11.04;89.85
5062;BME280;2351;50.812;12.872;2022-10-30T03:39:35;98196.13;;;11.05;89.58
5062;BME280;2351;50.812;12.872;2022-10-30T03:42:07;98196.63;;;10.99;89.32
5062;BME280;2351;50.812;12.872;2022-10-30T03:44:38;98200.50;;;10.95;89.55
5062;BME280;2351;50.812;12.872;2022-10-30T03:47:10;98202.19;;;10.96;89.82
5062;BME280;2351;50.812;12.872;2022-10-30T03:49:41;98203.63;;;11.00;89.87
5062;BME280;2351;50.812;12.872;2022-10-30T03:52:14;98205.53;;;10.98;89.67
5062;BME280;2351;50.812;12.872;2022-10-30T03:54:46;98207.16;;;10.89;89.71
5062;BME280;2351;50.812;12.872;2022-10-30T03:57:17;98211.16;;;10.83;89.86
5062;BME280;2351;50.812;12.872;2022-10-30T03:59:49;98213.34;;;10.78;89.72
5062;BME280;2351;50.812;12.872;2022-10-30T04:02:20;98204.34;;;10.69;89.88
5062;BME280;2351;50.812;12.872;2022-10-30T04:04:52;98212.44;;;10.68;90.23
5062;BME280;2351;50.812;12.872;2022-10-30T04:07:25;98214.81;;;10.71;90.17
5062;BME280;2351;50.812;12.872;2022-10-30T04:09:56;98208.56;;;10.72;90.29
5062;BME280;2351;50.812;12.872;2022-10-30T04:12:27;98214.69;;;10.73;90.46
5062;BME280;2351;50.812;12.872;2022-10-30T04:14:59;98211.19;;;10.72;90.37
5062;BME280;2351;50.812;12.872;2022-10-30T04:17:30;98211.91;;;10.74;90.33
5062;BME280;2351;50.812;12.872;2022-10-30T04:20:02;98210.13;;;10.75;90.36
5062;BME280;2351;50.812;12.872;2022-10-30T04:22:35;98208.31;;;10.75;90.24
5062;BME280;2351;50.812;12.872;2022-10-30T04:25:08;98209.25;;;10.74;90.46
5062;BME280;2351;50.812;12.872;2022-10-30T04:27:40;98204.69;;;10.76;90.30
5062;BME280;2351;50.812;12.872;2022-10-30T04:30:12;98206.13;;;10.80;90.38
5062;BME280;2351;50.812;12.872;2022-10-30T04:32:46;98200.81;;;10.80;90.61
5062;BME280;2351;50.812;12.872;2022-10-30T04:35:19;98186.75;;;10.80;90.71
5062;BME280;2351;50.812;12.872;2022-10-30T04:37:52;98194.72;;;10.80;90.56
5062;BME280;2351;50.812;12.872;2022-10-30T04:40:26;98198.31;;;10.79;90.49
5062;BME280;2351;50.812;12.872;2022-10-30T04:42:57;98192.31;;;10.77;90.56
5062;BME280;2351;50.812;12.872;2022-10-30T04:45:29;98192.31;;;10.77;90.64
5062;BME280;2351;50.812;12.872;2022-10-30T04:48:02;98188.09;;;10.74;90.73
5062;BME280;2351;50.812;12.872;2022-10-30T04:50:34;98182.94;;;10.73;90.60
5062;BME280;2351;50.812;12.872;2022-10-30T04:53:12;98188.47;;;10.69;90.74
5062;BME280;2351;50.812;12.872;2022-10-30T04:55:44;98185.97;;;10.68;90.64
5062;BME280;2351;50.812;12.872;2022-10-30T04:58:16;98191.38;;;10.66;90.77
5062;BME280;2351;50.812;12.872;2022-10-30T05:00:47;98186.94;;;10.67;90.81
5062;BME280;2351;50.812;12.872;2022-10-30T05:03:21;98186.09;;;10.66;90.69
5062;BME280;2351;50.812;12.872;2022-10-30T05:05:56;98186.94;;;10.67;90.80
5062;BME280;2351;50.812;12.872;2022-10-30T05:08:29;98186.09;;;10.66;90.66
5062;BME280;2351;50.812;12.872;2022-10-30T05:11:03;98190.56;;;10.66;90.70
5062;BME280;2351;50.812;12.872;2022-10-30T05:13:34;98193.31;;;10.64;90.72
5062;BME280;2351;50.812;12.872;2022-10-30T05:16:06;98190.09;;;10.61;90.83
5062;BME280;2351;50.812;12.872;2022-10-30T05:18:38;98184.78;;;10.61;90.73
5062;BME280;2351;50.812;12.872;2022-10-30T05:21:09;98190.31;;;10.58;90.68
5062;BME280;2351;50.812;12.872;2022-10-30T05:23:42;98186.84;;;10.57;90.98
5062;BME280;2351;50.812;12.872;2022-10-30T05:26:14;98184.22;;;10.57;90.76
5062;BME280;2351;50.812;12.872;2022-10-30T05:28:45;98185.88;;;10.58;90.77
5062;BME280;2351;50.812;12.872;2022-10-30T05:31:17;98186.13;;;10.55;90.96
5062;BME280;2351;50.812;12.872;2022-10-30T05:33:48;98181.91;;;10.52;91.11
5062;BME280;2351;50.812;12.872;2022-10-30T05:36:20;98184.56;;;10.52;91.22
5062;BME280;2351;50.812;12.872;2022-10-30T05:38:53;98178.56;;;10.50;91.47
5062;BME280;2351;50.812;12.872;2022-10-30T05:41:24;98181.19;;;10.50;91.57
5062;BME280;2351;50.812;12.872;2022-10-30T05:43:56;98182.06;;;10.51;91.42
5062;BME280;2351;50.812;12.872;2022-10-30T05:46:27;98179.41;;;10.51;91.62
5062;BME280;2351;50.812;12.872;2022-10-30T05:48:59;98190.81;;;10.51;91.60
5062;BME280;2351;50.812;12.872;2022-10-30T05:51:30;98191.69;;;10.52;91.77
5062;BME280;2351;50.812;12.872;2022-10-30T05:54:04;98190.81;;;10.51;91.67
5062;BME280;2351;50.812;12.872;2022-10-30T05:56:35;98192.50;;;10.52;91.79
5062;BME280;2351;50.812;12.872;2022-10-30T05:59:07;98195.88;;;10.54;92.02
5062;BME280;2351;50.812;12.872;2022-10-30T06:01:38;98199.22;;;10.57;91.85
5062;BME280;2351;50.812;12.872;2022-10-30T06:04:10;98197.56;;;10.55;92.18
5062;BME280;2351;50.812;12.872;2022-10-30T06:06:41;98195.88;;;10.54;91.88
5062;BME280;2351;50.812;12.872;2022-10-30T06:09:14;98200.19;;;10.55;92.05
5062;BME280;2351;50.812;12.872;2022-10-30T06:11:46;98207.19;;;10.57;92.23
5062;BME280;2351;50.812;12.872;2022-10-30T06:14:17;98202.75;;;10.57;92.25
5062;BME280;2351;50.812;12.872;2022-10-30T06:16:49;98203.44;;;10.59;92.45
5062;BME280;2351;50.812;12.872;2022-10-30T06:19:20;98216.53;;;10.61;92.53
5062;BME280;2351;50.812;12.872;2022-10-30T06:21:52;98209.31;;;10.63;92.79
5062;BME280;2351;50.812;12.872;2022-10-30T06:24:25;98211.59;;;10.67;92.84
5062;BME280;2351;50.812;12.872;2022-10-30T06:26:57;98211.34;;;10.70;92.96
5062;BME280;2351;50.812;12.872;2022-10-30T06:29:28;98218.06;;;10.75;92.91
5062;BME280;2351;50.812;12.872;2022-10-30T06:32:00;98218.63;;;10.78;93.03
5062;BME280;2351;50.812;12.872;2022-10-30T06:34:31;98228.00;;;10.82;93.24
5062;BME280;2351;50.812;12.872;2022-10-30T06:37:03;98229.56;;;10.85;93.30
5062;BME280;2351;50.812;12.872;2022-10-30T06:39:36;98229.31;;;10.88;93.46
5062;BME280;2351;50.812;12.872;2022-10-30T06:42:07;98225.69;;;10.89;93.41
5062;BME280;2351;50.812;12.872;2022-10-30T06:44:39;98234.22;;;10.93;93.54
5062;BME280;2351;50.812;12.872;2022-10-30T06:47:10;98231.31;;;10.96;93.92
5062;BME280;2351;50.812;12.872;2022-10-30T06:49:42;98240.84;;;10.98;93.75
5062;BME280;2351;50.812;12.872;2022-10-30T06:52:14;98239.88;;;10.99;94.09
5062;BME280;2351;50.812;12.872;2022-10-30T06:54:47;98245.59;;;11.05;94.00
5062;BME280;2351;50.812;12.872;2022-10-30T06:57:18;98244.53;;;11.07;94.14
5062;BME280;2351;50.812;12.872;2022-10-30T06:59:50;98240.66;;;11.11;94.24
5062;BME280;2351;50.812;12.872;2022-10-30T07:02:21;98249.03;;;11.17;94.45
5062;BME280;2351;50.812;12.872;2022-10-30T07:04:53;98251.31;;;11.21;94.48
5062;BME280;2351;50.812;12.872;2022-10-30T07:07:24;98256.94;;;11.28;94.62
5062;BME280;2351;50.812;12.872;2022-10-30T07:09:57;98267.03;;;11.34;94.73
5062;BME280;2351;50.812;12.872;2022-10-30T07:12:35;98258.53;;;11.40;94.89
5062;BME280;2351;50.812;12.872;2022-10-30T07:15:07;98260.66;;;11.47;95.04
5062;BME280;2351;50.812;12.872;2022-10-30T07:17:39;98259.31;;;11.52;95.18
5062;BME280;2351;50.812;12.872;2022-10-30T07:20:10;98258.78;;;11.58;95.36
5062;BME280;2351;50.812;12.872;2022-10-30T07:22:42;98265.97;;;11.68;95.55
5062;BME280;2351;50.812;12.872;2022-10-30T07:25:15;98261.69;;;11.77;95.68
5062;BME280;2351;50.812;12.872;2022-10-30T07:27:48;98270.78;;;11.84;95.58
5062;BME280;2351;50.812;12.872;2022-10-30T07:30:22;98275.69;;;11.88;95.78
5062;BME280;2351;50.812;12.872;2022-10-30T07:32:58;98271.66;;;11.94;95.88
5062;BME280;2351;50.812;12.872;2022-10-30T07:35:30;98280.81;;;12.01;95.86
5062;BME280;2351;50.812;12.872;2022-10-30T07:38:03;98269.66;;;12.08;95.90
5062;BME280;2351;50.812;12.872;2022-10-30T07:40:36;98272.75;;;12.13;96.09
5062;BME280;2351;50.812;12.872;2022-10-30T07:43:07;98271.38;;;12.18;96.10
5062;BME280;2351;50.812;12.872;2022-10-30T07:45:39;98270.69;;;12.26;96.20
5062;BME280;2351;50.812;12.872;2022-10-30T07:48:11;98268.22;;;12.34;96.25
5062;BME280;2351;50.812;12.872;2022-10-30T07:50:42;98267.53;;;12.42;96.48
5062;BME280;2351;50.812;12.872;2022-10-30T07:53:14;98274.69;;;12.52;96.49
5062;BME280;2351;50.812;12.872;2022-10-30T07:55:47;98267.81;;;12.59;96.48
5062;BME280;2351;50.812;12.872;2022-10-30T07:58:18;98276.09;;;12.65;96.59
5062;BME280;2351;50.812;12.872;2022-10-30T08:00:50;98269.25;;;12.73;96.69
5062;BME280;2351;50.812;12.872;2022-10-30T08:03:21;98267.72;;;12.80;96.63
5062;BME280;2351;50.812;12.872;2022-10-30T08:05:53;98263.66;;;12.86;96.71
5062;BME280;2351;50.812;12.872;2022-10-30T08:08:24;98258.34;;;12.95;96.96
5062;BME280;2351;50.812;12.872;2022-10-30T08:10:57;98258.50;;;13.04;97.18
5062;BME280;2351;50.812;12.872;2022-10-30T08:13:29;98255.69;;;13.15;97.30
5062;BME280;2351;50.812;12.872;2022-10-30T08:16:00;98261.69;;;13.27;97.38
5062;BME280;2351;50.812;12.872;2022-10-30T08:18:32;98258.75;;;13.40;97.67
5062;BME280;2351;50.812;12.872;2022-10-30T08:21:03;98257.66;;;13.52;97.75
5062;BME280;2351;50.812;12.872;2022-10-30T08:23:35;98263.63;;;13.64;97.90
5062;BME280;2351;50.812;12.872;2022-10-30T08:26:08;98254.66;;;13.75;98.10
5062;BME280;2351;50.812;12.872;2022-10-30T08:28:39;98255.16;;;13.89;98.29
5062;BME280;2351;50.812;12.872;2022-10-30T08:31:11;98263.78;;;14.00;98.41
5062;BME280;2351;50.812;12.872;2022-10-30T08:33:42;98259.13;;;14.12;98.44
5062;BME280;2351;50.812;12.872;2022-10-30T08:36:14;98260.59;;;14.25;98.69
5062;BME280;2351;50.812;12.872;2022-10-30T08:38:45;98256.59;;;14.39;98.86
5062;BME280;2351;50.812;12.872;2022-10-30T08:41:18;98257.63;;;14.56;99.12
5062;BME280;2351;50.812;12.872;2022-10-30T08:43:50;98257.81;;;14.72;99.25
5062;BME280;2351;50.812;12.872;2022-10-30T08:46:21;98253.03;;;14.94;99.71
5062;BME280;2351;50.812;12.872;2022-10-30T08:48:53;98250.88;;;15.16;99.91
5062;BME280;2351;50.812;12.872;2022-10-30T08:51:25;98240.03;;;15.35;100.00
5062;BME280;2351;50.812;12.872;2022-10-30T08:53:56;98244.03;;;15.58;100.00
5062;BME280;2351;50.812;12.872;2022-10-30T08:56:29;98242.50;;;15.81;100.00
5062;BME280;2351;50.812;12.872;2022-10-30T08:59:01;98242.16;;;16.11;100.00
5062;BME280;2351;50.812;12.872;2022-10-30T09:01:32;98234.94;;;16.38;100.00
5062;BME280;2351;50.812;12.872;2022-10-30T09:04:05;98238.00;;;16.60;100.00
5062;BME280;2351;50.812;12.872;2022-10-30T09:06:37;98234.53;;;16.76;100.00
5062;BME280;2351;50.812;12.872;2022-10-30T09:09:08;98233.69;;;16.92;100.00
5062;BME280;2351;50.812;12.872;2022-10-30T09:11:42;98230.69;;;17.11;100.00
5062;BME280;2351;50.812;12.872;2022-10-30T09:14:14;98232.88;;;17.33;100.00
5062;BME280;2351;50.812;12.872;2022-10-30T09:16:45;98235.38;;;17.51;100.00
5062;BME280;2351;50.812;12.872;2022-10-30T09:19:17;98225.97;;;17.71;100.00
5062;BME280;2351;50.812;12.872;2022-10-30T09:21:48;98230.25;;;17.89;99.59
5062;BME280;2351;50.812;12.872;2022-10-30T09:24:20;98226.88;;;18.03;99.36
5062;BME280;2351;50.812;12.872;2022-10-30T09:26:53;98229.81;;;18.25;98.63
5062;BME280;2351;50.812;12.872;2022-10-30T09:29:25;98229.78;;;18.33;97.25
5062;BME280;2351;50.812;12.872;2022-10-30T09:31:57;98237.28;;;18.38;96.31
5062;BME280;2351;50.812;12.872;2022-10-30T09:34:28;98235.22;;;18.48;96.49
5062;BME280;2351;50.812;12.872;2022-10-30T09:37:00;98229.88;;;18.72;96.73
5062;BME280;2351;50.812;12.872;2022-10-30T09:39:31;98233.75;;;19.01;97.00
5062;BME280;2351;50.812;12.872;2022-10-30T09:42:21;98224.19;;;19.21;95.79
5062;BME280;2351;50.812;12.872;2022-10-30T09:45:07;98225.00;;;19.22;94.39
5062;BME280;2351;50.812;12.872;2022-10-30T09:47:48;98217.16;;;19.20;93.03
5062;BME280;2351;50.812;12.872;2022-10-30T09:50:24;98223.72;;;19.18;92.15
5062;BME280;2351;50.812;12.872;2022-10-30T09:53:03;98223.47;;;19.27;91.94
5062;BME280;2351;50.812;12.872;2022-10-30T09:55:41;98220.06;;;19.49;91.57
5062;BME280;2351;50.812;12.872;2022-10-30T09:58:23;98224.25;;;19.66;90.42
5062;BME280;2351;50.812;12.872;2022-10-30T10:01:09;98226.66;;;19.76;89.23
5062;BME280;2351;50.812;12.872;2022-10-30T10:03:54;98232.03;;;19.76;87.79
5062;BME280;2351;50.812;12.872;2022-10-30T10:06:30;98228.34;;;19.77;86.73
5062;BME280;2351;50.812;12.872;2022-10-30T10:09:07;98225.66;;;19.77;84.15
5062;BME280;2351;50.812;12.872;2022-10-30T10:11:46;98222.13;;;19.62;79.83
5062;BME280;2351;50.812;12.872;2022-10-30T10:14:23;98232.50;;;19.65;78.49
5062;BME280;2351;50.812;12.872;2022-10-30T10:16:58;98232.44;;;19.73;79.09
5062;BME280;2351;50.812;12.872;2022-10-30T10:19:34;98229.28;;;19.84;78.26
5062;BME280;2351;50.812;12.872;2022-10-30T10:22:19;98229.41;;;19.91;76.49
5062;BME280;2351;50.812;12.872;2022-10-30T10:24:51;98232.81;;;20.00;75.99
5062;BME280;2351;50.812;12.872;2022-10-30T10:27:32;98232.00;;;20.14;75.58
5062;BME280;2351;50.812;12.872;2022-10-30T10:30:14;98222.03;;;20.30;74.79
5062;BME280;2351;50.812;12.872;2022-10-30T10:33:25;98220.16;;;20.45;73.73
5062;BME280;2351;50.812;12.872;2022-10-30T10:36:07;98219.81;;;20.70;75.44
5062;BME280;2351;50.812;12.872;2022-10-30T10:39:12;98220.22;;;20.89;72.41
5062;BME280;2351;50.812;12.872;2022-10-30T10:41:57;98217.09;;;21.07;71.11
5062;BME280;2351;50.812;12.872;2022-10-30T10:44:41;98214.97;;;21.24;69.13
5062;BME280;2351;50.812;12.872;2022-10-30T10:47:29;98211.16;;;21.40;68.46
5062;BME280;2351;50.812;12.872;2022-10-30T10:50:14;98209.97;;;21.49;66.20
5062;BME280;2351;50.812;12.872;2022-10-30T10:52:51;98202.63;;;21.65;65.13
5062;BME280;2351;50.812;12.872;2022-10-30T10:55:26;98203.25;;;21.95;67.32
5062;BME280;2351;50.812;12.872;2022-10-30T10:58:06;98207.94;;;22.29;68.09
5062;BME280;2351;50.812;12.872;2022-10-30T11:00:41;98206.66;;;22.73;68.59
5062;BME280;2351;50.812;12.872;2022-10-30T11:03:19;98202.97;;;23.01;66.35
5062;BME280;2351;50.812;12.872;2022-10-30T11:05:56;98197.16;;;23.17;65.04
5062;BME280;2351;50.812;12.872;2022-10-30T11:08:30;98193.44;;;23.39;64.62
5062;BME280;2351;50.812;12.872;2022-10-30T11:11:04;98197.38;;;23.36;58.71
5062;BME280;2351;50.812;12.872;2022-10-30T11:13:37;98197.38;;;23.36;58.04
5062;BME280;2351;50.812;12.872;2022-10-30T11:16:17;98200.06;;;23.50;58.15
5062;BME280;2351;50.812;12.872;2022-10-30T11:18:55;98193.19;;;23.67;56.57
5062;BME280;2351;50.812;12.872;2022-10-30T11:21:30;98188.97;;;23.91;56.78
5062;BME280;2351;50.812;12.872;2022-10-30T11:24:27;98195.34;;;24.17;56.67
5062;BME280;2351;50.812;12.872;2022-10-30T11:27:16;98186.88;;;24.46;55.93
5062;BME280;2351;50.812;12.872;2022-10-30T11:29:50;98178.66;;;24.73;55.31
5062;BME280;2351;50.812;12.872;2022-10-30T11:32:26;98190.16;;;24.93;54.44
5062;BME280;2351;50.812;12.872;2022-10-30T11:35:11;98188.25;;;25.01;53.18
5062;BME280;2351;50.812;12.872;2022-10-30T11:37:44;98182.34;;;25.10;52.50
5062;BME280;2351;50.812;12.872;2022-10-30T11:40:17;98178.53;;;25.18;50.71
5062;BME280;2351;50.812;12.872;2022-10-30T11:42:54;98173.09;;;25.18;50.42
5062;BME280;2351;50.812;12.872;2022-10-30T11:45:30;98172.72;;;25.15;49.27
5062;BME280;2351;50.812;12.872;2022-10-30T11:48:09;98169.50;;;25.24;49.18
5062;BME280;2351;50.812;12.872;2022-10-30T11:50:46;98164.41;;;25.35;48.87
5062;BME280;2351;50.812;12.872;2022-10-30T11:53:21;98172.66;;;25.47;48.71
5062;BME280;2351;50.812;12.872;2022-10-30T11:56:00;98169.50;;;25.50;48.68
5062;BME280;2351;50.812;12.872;2022-10-30T11:58:36;98165.06;;;25.55;48.66
5062;BME280;2351;50.812;12.872;2022-10-30T12:01:13;98165.84;;;25.63;48.46
5062;BME280;2351;50.812;12.872;2022-10-30T12:03:49;98167.41;;;25.70;48.07
5062;BME280;2351;50.812;12.872;2022-10-30T12:06:27;98171.53;;;25.73;47.47
5062;BME280;2351;50.812;12.872;2022-10-30T12:09:00;98168.84;;;25.73;47.19
5062;BME280;2351;50.812;12.872;2022-10-30T12:11:33;98165.69;;;25.76;46.92
5062;BME280;2351;50.812;12.872;2022-10-30T12:14:05;98172.69;;;25.84;46.71
5062;BME280;2351;50.812;12.872;2022-10-30T12:16:43;98164.09;;;25.87;46.63
5062;BME280;2351;50.812;12.872;2022-10-30T12:19:17;98161.63;;;25.85;46.30
5062;BME280;2351;50.812;12.872;2022-10-30T12:24:35;98159.59;;;25.81;45.96
5062;BME280;2351;50.812;12.872;2022-10-30T12:27:11;98153.78;;;25.77;45.39
5062;BME280;2351;50.812;12.872;2022-10-30T12:29:54;98152.81;;;25.71;45.06
5062;BME280;2351;50.812;12.872;2022-10-30T12:32:46;98146.19;;;25.67;44.77
5062;BME280;2351;50.812;12.872;2022-10-30T12:35:34;98147.63;;;25.70;45.15
5062;BME280;2351;50.812;12.872;2022-10-30T12:38:14;98149.22;;;25.78;45.45
5062;BME280;2351;50.812;12.872;2022-10-30T12:40:57;98146.41;;;25.84;45.42
5062;BME280;2351;50.812;12.872;2022-10-30T12:43:32;98140.91;;;25.91;45.25
5062;BME280;2351;50.812;12.872;2022-10-30T12:46:19;98144.59;;;25.97;45.22
5062;BME280;2351;50.812;12.872;2022-10-30T12:49:00;98138.97;;;25.98;45.01
5062;BME280;2351;50.812;12.872;2022-10-30T12:51:34;98143.09;;;26.01;44.84
5062;BME280;2351;50.812;12.872;2022-10-30T12:54:19;98136.16;;;26.05;44.76
5062;BME280;2351;50.812;12.872;2022-10-30T12:57:04;98130.69;;;26.12;44.61
5062;BME280;2351;50.812;12.872;2022-10-30T12:59:44;98132.25;;;26.20;44.55
5062;BME280;2351;50.812;12.872;2022-10-30T13:02:27;98128.56;;;26.14;43.68
5062;BME280;2351;50.812;12.872;2022-10-30T13:05:03;98133.91;;;26.02;43.23
5062;BME280;2351;50.812;12.872;2022-10-30T13:07:39;98128.13;;;25.98;43.03
5062;BME280;2351;50.812;12.872;2022-10-30T13:10:21;98127.72;;;25.95;42.77
5062;BME280;2351;50.812;12.872;2022-10-30T13:13:01;98126.91;;;25.94;42.79
5062;BME280;2351;50.812;12.872;2022-10-30T13:15:37;98129.38;;;25.96;42.78
5062;BME280;2351;50.812;12.872;2022-10-30T13:18:16;98124.34;;;25.99;43.02
5062;BME280;2351;50.812;12.872;2022-10-30T13:21:00;98126.66;;;25.96;42.83
5062;BME280;2351;50.812;12.872;2022-10-30T13:23:41;98128.56;;;25.95;42.73
5062;BME280;2351;50.812;12.872;2022-10-30T13:26:23;98122.78;;;25.92;42.69
5062;BME280;2351;50.812;12.872;2022-10-30T13:29:03;98125.78;;;25.83;42.37
5062;BME280;2351;50.812;12.872;2022-10-30T13:31:46;98116.53;;;25.73;42.32
5062;BME280;2351;50.812;12.872;2022-10-30T13:34:30;98124.16;;;25.64;42.23
5062;BME280;2351;50.812;12.872;2022-10-30T13:37:08;98123.00;;;25.53;42.28
5062;BME280;2351;50.812;12.872;2022-10-30T13:39:57;98128.94;;;25.43;42.48
5062;BME280;2351;50.812;12.872;2022-10-30T13:42:42;98123.63;;;25.30;42.41
5062;BME280;2351;50.812;12.872;2022-10-30T13:45:50;98124.56;;;25.17;42.55
5062;BME280;2351;50.812;12.872;2022-10-30T13:48:33;98126.59;;;25.03;42.70
5062;BME280;2351;50.812;12.872;2022-10-30T13:51:24;98121.06;;;24.91;43.10
5062;BME280;2351;50.812;12.872;2022-10-30T13:54:02;98122.22;;;24.76;43.47